Terminal Aerodrome Forecast
Issued by NWS Quad Cities IA IL

Home | Current Version | Previous Version | Text Only | Print | Product List | Glossary On
Versions: 1 2 3 4 5 6 7 8 9 10 11 12 13 14 15 16 17 18
000
FTUS43 KDVN 292300
TAFDBQ
TAF
KDBQ 292339Z 3000/3024 18007KT P6SM VCTS FEW050CB BKN250
      TEMPO 3000/3004 2SM TSRA BKN030CB
     FM300600 22005KT P6SM VCSH SCT012 BKN030
     FM301300 28006KT 6SM BR BKN025
     FM301600 28007KT P6SM SCT035=

USA.gov is the U.S. government's official web portal to all federal, state and local government web resources and services.